Time;durP1;ratioP1;P1;durP2;ratioP2;P2;SDS_P1;SDS_P2;PMS_P1;PMS_P2;Temp;Humidity;BMP_temperature;BMP_pressure;BME280_temperature;BME280_humidity;BME280_pressure;Samples;Min_cycle;Max_cycle;Signal;HPM_P1;HPM_P2
2021/05/02 00:01:43;;;;;;;16.38;12.20;;;8.60;99.90;;;;;;4882858;29;20403;-80
2021/05/02 00:04:09;;;;;;;14.00;12.57;;;8.60;99.90;;;;;;4884075;29;20882;-81
2021/05/02 00:06:35;;;;;;;16.50;12.95;;;8.70;99.90;;;;;;4886913;29;20461;-80
2021/05/02 00:09:01;;;;;;;16.42;13.40;;;8.60;99.90;;;;;;4911334;29;20403;-80
2021/05/02 00:11:29;;;;;;;18.13;12.30;;;8.60;99.90;;;;;;4919900;29;20496;-81
2021/05/02 00:13:55;;;;;;;15.43;12.10;;;8.60;99.90;;;;;;4918826;29;20484;-81
2021/05/02 00:16:21;;;;;;;15.07;12.73;;;8.60;99.90;;;;;;4914450;29;20494;-80
2021/05/02 00:18:47;;;;;;;17.50;13.60;;;8.50;99.90;;;;;;4894471;29;20416;-81
2021/05/02 00:21:16;;;;;;;15.65;13.07;;;8.50;99.90;;;;;;4899717;29;20404;-80
2021/05/02 00:23:42;;;;;;;17.80;13.48;;;8.50;99.90;;;;;;4917865;29;20413;-82
2021/05/02 00:26:08;;;;;;;18.50;13.82;;;8.50;99.90;;;;;;4898209;29;20763;-80
2021/05/02 00:28:34;;;;;;;16.98;13.13;;;8.50;99.90;;;;;;4907389;29;20436;-80
2021/05/02 00:31:04;;;;;;;18.33;13.55;;;8.40;99.90;;;;;;4909429;29;20431;-81
2021/05/02 00:33:35;;;;;;;15.23;13.07;;;8.40;99.90;;;;;;4902218;29;20962;-79
2021/05/02 00:36:05;;;;;;;15.70;13.03;;;8.40;99.90;;;;;;4914697;28;20410;-82
2021/05/02 00:38:34;;;;;;;16.83;13.05;;;8.40;99.90;;;;;;4928834;29;20441;-80
2021/05/02 00:41:00;;;;;;;17.65;13.82;;;8.40;99.90;;;;;;4913385;29;20420;-81
2021/05/02 00:43:57;;;;;;;15.88;12.68;;;8.40;99.90;;;;;;4915893;29;20992;-81
2021/05/02 00:46:35;;;;;;;15.77;13.07;;;8.50;99.90;;;;;;4898543;29;20509;-81
2021/05/02 00:49:15;;;;;;;15.93;13.23;;;8.50;99.90;;;;;;4924398;29;20437;-81
2021/05/02 00:51:43;;;;;;;14.47;11.37;;;8.50;99.90;;;;;;4927296;28;21213;-81
2021/05/02 00:54:21;;;;;;;16.45;13.93;;;8.50;99.90;;;;;;4932026;29;20409;-81
2021/05/02 00:57:07;;;;;;;17.17;13.85;;;8.40;99.90;;;;;;4889636;29;20443;-81
2021/05/02 00:59:49;;;;;;;21.63;13.60;;;8.40;99.90;;;;;;4908842;29;20487;-80
2021/05/02 01:02:15;;;;;;;19.50;13.48;;;8.40;99.90;;;;;;4894410;29;20395;-81
2021/05/02 01:04:43;;;;;;;16.58;12.93;;;8.30;99.90;;;;;;4914450;29;20390;-81
2021/05/02 01:07:16;;;;;;;16.10;13.10;;;8.30;99.90;;;;;;4916209;29;20391;-81
2021/05/02 01:09:42;;;;;;;14.20;12.20;;;8.30;99.90;;;;;;4903650;29;20404;-80
2021/05/02 01:12:11;;;;;;;15.43;11.85;;;8.30;99.90;;;;;;4898823;29;20408;-81
2021/05/02 01:14:37;;;;;;;15.15;13.50;;;8.30;99.90;;;;;;4889843;29;20466;-81
2021/05/02 01:17:03;;;;;;;16.17;13.07;;;8.30;99.90;;;;;;4902296;29;20442;-82
2021/05/02 01:19:29;;;;;;;16.05;12.52;;;8.30;99.90;;;;;;4894856;29;20919;-82
2021/05/02 01:21:58;;;;;;;15.67;12.33;;;8.30;99.90;;;;;;4919190;29;20400;-81
2021/05/02 01:24:23;;;;;;;17.38;12.80;;;8.30;99.90;;;;;;4916475;29;20422;-81
2021/05/02 01:26:49;;;;;;;14.13;12.57;;;8.30;99.90;;;;;;4902089;29;20474;-81
2021/05/02 01:29:15;;;;;;;15.50;12.35;;;8.30;99.90;;;;;;4898904;29;20823;-81
2021/05/02 01:31:42;;;;;;;16.23;12.67;;;8.40;99.90;;;;;;4908606;29;20763;-80
2021/05/02 01:34:08;;;;;;;15.15;12.25;;;8.30;99.90;;;;;;4929234;29;20486;-80
2021/05/02 01:36:34;;;;;;;14.40;12.88;;;8.30;99.90;;;;;;4916059;28;20402;-81
2021/05/02 01:39:05;;;;;;;13.98;11.80;;;8.30;99.90;;;;;;4899116;29;20812;-81
2021/05/02 01:41:31;;;;;;;17.27;12.40;;;8.30;99.90;;;;;;4908342;29;20439;-81
2021/05/02 01:43:59;;;;;;;15.63;12.33;;;8.20;99.90;;;;;;4911548;28;20410;-81
2021/05/02 01:46:39;;;;;;;14.05;12.43;;;8.50;99.90;;;;;;4896697;29;20421;-82
2021/05/02 01:49:13;;;;;;;16.50;12.80;;;8.40;99.90;;;;;;4907741;29;20433;-81
2021/05/02 01:51:41;;;;;;;17.58;13.02;;;8.40;99.90;;;;;;4880930;29;20406;-81
2021/05/02 01:54:13;;;;;;;14.55;12.10;;;8.40;99.90;;;;;;4893168;29;20462;-82
2021/05/02 01:56:39;;;;;;;14.47;12.23;;;8.30;99.90;;;;;;4897810;29;20411;-81
2021/05/02 01:59:07;;;;;;;13.80;11.98;;;8.30;99.90;;;;;;4916080;29;20464;-81
2021/05/02 02:01:33;;;;;;;14.43;12.07;;;8.30;99.90;;;;;;4889398;29;20411;-81
2021/05/02 02:04:02;;;;;;;13.93;12.48;;;8.30;99.90;;;;;;4909082;29;20786;-80
2021/05/02 02:06:29;;;;;;;17.10;13.48;;;8.30;99.90;;;;;;4921770;29;20889;-80
2021/05/02 02:08:59;;;;;;;16.33;13.15;;;8.20;99.90;;;;;;4908008;29;20417;-81
2021/05/02 02:11:29;;;;;;;16.08;12.50;;;8.30;99.90;;;;;;4913813;29;20415;-81
2021/05/02 02:13:54;;;;;;;16.48;13.07;;;8.30;99.90;;;;;;4917232;29;20489;-81
2021/05/02 02:16:21;;;;;;;14.57;12.32;;;8.20;99.90;;;;;;4914251;29;20420;-81
2021/05/02 02:18:47;;;;;;;15.43;12.75;;;8.40;99.90;;;;;;4872050;29;20453;-81
2021/05/02 02:21:13;;;;;;;17.33;13.20;;;8.20;99.90;;;;;;4892660;29;21049;-80
2021/05/02 02:23:40;;;;;;;13.23;11.68;;;8.20;99.90;;;;;;4915795;29;20425;-81
2021/05/02 02:26:56;;;;;;;15.23;12.87;;;8.30;99.90;;;;;;4904984;29;20419;-81
2021/05/02 02:29:22;;;;;;;13.85;12.35;;;8.20;99.90;;;;;;4900224;29;21008;-80
2021/05/02 02:31:50;;;;;;;14.73;12.07;;;8.20;99.90;;;;;;4911023;29;20442;-80
2021/05/02 02:34:15;;;;;;;14.05;12.48;;;8.20;99.90;;;;;;4892891;29;20423;-79
2021/05/02 02:36:42;;;;;;;15.60;13.45;;;8.20;99.90;;;;;;4889822;29;20744;-79
2021/05/02 02:39:07;;;;;;;14.32;12.68;;;8.20;99.90;;;;;;4914753;29;20774;-80
2021/05/02 02:41:38;;;;;;;16.10;13.25;;;8.10;99.90;;;;;;4907106;29;20406;-80
2021/05/02 02:44:06;;;;;;;18.55;14.25;;;8.10;99.90;;;;;;4904198;29;20416;-80
2021/05/02 02:46:32;;;;;;;17.90;13.43;;;8.10;99.90;;;;;;4896219;29;20636;-79
2021/05/02 02:48:58;;;;;;;15.05;13.13;;;8.00;99.90;;;;;;4911262;29;20413;-78
2021/05/02 02:51:25;;;;;;;15.95;12.98;;;8.00;99.90;;;;;;4894896;29;20912;-79
2021/05/02 02:53:51;;;;;;;16.10;12.93;;;8.10;99.90;;;;;;4893567;29;20428;-79
2021/05/02 02:56:21;;;;;;;19.00;14.35;;;8.10;99.90;;;;;;4922506;29;20394;-80
2021/05/02 02:59:04;;;;;;;14.57;12.73;;;8.10;99.90;;;;;;4894494;29;20422;-80
2021/05/02 03:01:29;;;;;;;15.38;12.52;;;8.10;99.90;;;;;;4896251;29;20437;-80
2021/05/02 03:03:58;;;;;;;15.85;12.70;;;8.10;99.90;;;;;;4898412;29;20406;-80
2021/05/02 03:06:27;;;;;;;16.60;13.75;;;8.10;99.90;;;;;;4931447;29;20401;-79
2021/05/02 03:08:54;;;;;;;14.93;12.43;;;8.10;99.90;;;;;;4895844;29;20407;-80
2021/05/02 03:11:20;;;;;;;19.60;13.85;;;8.10;99.90;;;;;;4898040;29;20396;-79
2021/05/02 03:13:46;;;;;;;15.60;13.60;;;8.10;99.90;;;;;;4917156;29;20398;-78
2021/05/02 03:16:12;;;;;;;18.17;14.63;;;8.10;99.90;;;;;;4894269;29;20415;-79
2021/05/02 03:19:00;;;;;;;18.25;14.20;;;8.00;99.90;;;;;;4907172;29;20470;-79
2021/05/02 03:21:34;;;;;;;19.83;15.15;;;8.00;99.90;;;;;;4921940;29;20405;-79
2021/05/02 03:24:02;;;;;;;16.55;13.52;;;8.00;99.90;;;;;;4915487;29;20418;-78
2021/05/02 03:26:28;;;;;;;19.40;14.25;;;7.90;99.90;;;;;;4906324;29;20425;-79
2021/05/02 03:28:58;;;;;;;20.97;15.47;;;7.90;99.90;;;;;;4891023;29;20406;-80
2021/05/02 03:31:27;;;;;;;15.13;13.20;;;7.90;99.90;;;;;;4924387;29;20420;-79
2021/05/02 03:33:54;;;;;;;16.83;14.20;;;7.80;99.90;;;;;;4892042;29;20404;-79
2021/05/02 03:36:25;;;;;;;17.20;13.55;;;7.80;99.90;;;;;;4923824;29;20418;-80
2021/05/02 03:38:51;;;;;;;17.85;14.90;;;7.80;99.90;;;;;;4892183;29;20419;-80
2021/05/02 03:41:18;;;;;;;18.53;14.33;;;7.80;99.90;;;;;;4912240;29;21114;-80
2021/05/02 03:43:44;;;;;;;16.80;14.00;;;7.90;99.90;;;;;;4894543;29;20459;-79
2021/05/02 03:46:25;;;;;;;18.38;13.43;;;7.80;99.90;;;;;;4915212;29;20824;-79
2021/05/02 03:48:53;;;;;;;15.98;14.27;;;7.80;99.90;;;;;;4920580;29;20405;-80
2021/05/02 03:51:20;;;;;;;21.83;15.53;;;7.90;99.90;;;;;;4924333;29;20407;-79
2021/05/02 03:53:45;;;;;;;19.42;16.30;;;7.80;99.90;;;;;;4899191;29;20540;-79
2021/05/02 03:56:11;;;;;;;18.88;15.48;;;7.70;99.90;;;;;;4899062;29;20807;-79
2021/05/02 03:58:37;;;;;;;18.90;16.27;;;7.70;99.90;;;;;;4915059;29;20898;-80
2021/05/02 04:01:02;;;;;;;18.03;14.80;;;7.70;99.90;;;;;;4915978;29;20415;-79
2021/05/02 04:03:28;;;;;;;20.38;15.93;;;7.70;99.90;;;;;;4893814;29;20426;-79
2021/05/02 04:05:54;;;;;;;20.07;15.93;;;7.60;99.90;;;;;;4901549;29;20431;-79
2021/05/02 04:08:19;;;;;;;18.90;15.63;;;7.50;99.90;;;;;;4926355;29;20933;-79
2021/05/02 04:10:45;;;;;;;20.85;16.52;;;7.70;99.90;;;;;;4928320;29;20417;-79
2021/05/02 04:13:11;;;;;;;20.37;16.23;;;7.60;99.90;;;;;;4903137;29;20408;-78
2021/05/02 04:15:36;;;;;;;17.73;15.18;;;7.50;99.90;;;;;;4932333;29;20421;-79
2021/05/02 04:18:02;;;;;;;18.07;15.73;;;7.50;99.90;;;;;;4909387;29;20477;-79
2021/05/02 04:20:28;;;;;;;17.47;15.13;;;7.50;99.90;;;;;;4892144;29;20410;-80
2021/05/02 04:22:53;;;;;;;22.45;17.02;;;7.50;99.90;;;;;;4912213;29;20493;-80
2021/05/02 04:25:19;;;;;;;18.53;15.50;;;7.50;99.90;;;;;;4907525;29;20403;-80
2021/05/02 04:27:45;;;;;;;20.83;15.63;;;7.50;99.90;;;;;;4911101;29;20404;-80
2021/05/02 04:30:11;;;;;;;19.42;16.45;;;7.50;99.90;;;;;;4918019;29;20410;-79
2021/05/02 04:32:37;;;;;;;20.77;15.43;;;7.50;99.90;;;;;;4929969;29;20942;-79
2021/05/02 04:35:03;;;;;;;19.00;16.50;;;7.50;99.90;;;;;;4902988;29;20398;-79
2021/05/02 04:37:29;;;;;;;20.08;16.45;;;7.50;99.90;;;;;;4896433;29;20507;-79
2021/05/02 04:39:54;;;;;;;17.00;14.73;;;7.50;99.90;;;;;;4875997;29;20491;-79
2021/05/02 04:42:20;;;;;;;20.23;15.98;;;7.60;99.90;;;;;;4924133;29;20517;-81
2021/05/02 04:44:46;;;;;;;20.42;15.30;;;7.50;99.90;;;;;;4915466;29;20405;-80
2021/05/02 04:47:16;;;;;;;19.77;16.47;;;7.70;99.90;;;;;;4876800;29;20400;-80
2021/05/02 04:49:42;;;;;;;18.50;15.73;;;7.60;99.90;;;;;;4912943;29;20972;-79
2021/05/02 04:52:08;;;;;;;18.73;16.52;;;7.50;99.90;;;;;;4907154;29;20410;-79
2021/05/02 04:54:34;;;;;;;20.17;17.50;;;7.50;99.90;;;;;;4900889;29;20457;-80
2021/05/02 04:56:59;;;;;;;20.08;15.63;;;7.60;99.90;;;;;;4915738;29;20407;-82
2021/05/02 04:59:25;;;;;;;21.70;16.90;;;7.50;99.90;;;;;;4916503;29;20415;-79
2021/05/02 05:01:51;;;;;;;19.10;16.40;;;7.60;99.90;;;;;;4900343;29;21140;-80
2021/05/02 05:04:16;;;;;;;20.65;16.70;;;7.60;99.90;;;;;;4900248;29;20897;-79
2021/05/02 05:06:42;;;;;;;21.10;17.93;;;7.60;99.90;;;;;;4900922;29;20411;-79
2021/05/02 05:09:08;;;;;;;20.23;15.80;;;7.70;99.90;;;;;;4899386;29;20400;-80
2021/05/02 05:11:34;;;;;;;21.57;16.87;;;7.70;99.90;;;;;;4901823;29;20830;-80
2021/05/02 05:13:59;;;;;;;20.60;15.57;;;7.60;99.90;;;;;;4894130;29;20470;-80
2021/05/02 05:16:25;;;;;;;23.70;17.93;;;7.60;99.90;;;;;;4882864;29;20419;-80
2021/05/02 05:18:51;;;;;;;19.48;16.33;;;7.60;99.90;;;;;;4900104;29;20989;-80
2021/05/02 05:21:17;;;;;;;19.33;16.97;;;7.60;99.90;;;;;;4916241;29;20911;-81
2021/05/02 05:23:42;;;;;;;21.25;17.58;;;7.60;99.90;;;;;;4883807;29;20891;-80
2021/05/02 05:26:08;;;;;;;20.42;16.50;;;7.50;99.90;;;;;;4914404;29;20405;-79
2021/05/02 05:28:34;;;;;;;20.30;16.67;;;7.50;99.90;;;;;;4907443;29;20464;-81
2021/05/02 05:30:59;;;;;;;20.23;16.55;;;7.50;99.90;;;;;;4914924;29;20398;-81
2021/05/02 05:33:30;;;;;;;20.52;17.50;;;7.60;99.90;;;;;;4921124;29;20403;-80
2021/05/02 05:35:55;;;;;;;21.83;16.63;;;7.60;99.90;;;;;;4911045;29;20429;-80
2021/05/02 05:38:21;;;;;;;23.55;16.88;;;7.60;99.90;;;;;;4901378;29;20440;-80
2021/05/02 05:40:47;;;;;;;20.07;16.37;;;7.50;99.90;;;;;;4880836;29;20926;-81
2021/05/02 05:43:12;;;;;;;20.92;16.48;;;7.60;99.90;;;;;;4911494;29;20483;-81
2021/05/02 05:45:38;;;;;;;21.20;16.37;;;7.60;99.90;;;;;;4899692;29;20413;-78
2021/05/02 05:48:04;;;;;;;21.23;16.92;;;7.60;99.90;;;;;;4916819;29;20404;-79
2021/05/02 05:50:31;;;;;;;19.80;16.58;;;7.60;99.90;;;;;;4913779;29;20821;-79
2021/05/02 05:52:57;;;;;;;20.92;16.88;;;7.50;99.90;;;;;;4907579;29;20775;-80
2021/05/02 05:55:26;;;;;;;19.40;15.20;;;7.50;99.90;;;;;;4929626;29;20413;-80
2021/05/02 05:57:52;;;;;;;20.40;16.67;;;7.60;99.90;;;;;;4882462;29;20455;-81
2021/05/02 06:00:19;;;;;;;17.20;14.70;;;7.60;99.90;;;;;;4911427;29;20397;-80
2021/05/02 06:02:45;;;;;;;20.20;16.02;;;7.60;99.90;;;;;;4887411;29;20408;-80
2021/05/02 06:05:11;;;;;;;18.35;14.93;;;7.60;99.90;;;;;;4907648;29;20481;-80
2021/05/02 06:07:37;;;;;;;18.33;15.10;;;7.70;99.90;;;;;;4913260;29;20479;-79
2021/05/02 06:10:04;;;;;;;18.33;15.20;;;7.80;99.90;;;;;;4914111;29;20450;-81
2021/05/02 06:12:30;;;;;;;16.02;13.43;;;7.70;99.90;;;;;;4894820;29;20413;-81
2021/05/02 06:14:55;;;;;;;17.15;13.77;;;7.80;99.90;;;;;;4908362;29;20412;-81
2021/05/02 06:17:21;;;;;;;16.15;12.90;;;7.80;99.90;;;;;;4897643;29;20413;-81
2021/05/02 06:19:47;;;;;;;18.27;15.47;;;7.80;99.90;;;;;;4931317;29;20413;-80
2021/05/02 06:22:12;;;;;;;14.55;13.05;;;7.80;99.90;;;;;;4922872;29;20441;-81
2021/05/02 06:24:38;;;;;;;15.65;13.65;;;7.70;99.90;;;;;;4903343;29;20489;-79
2021/05/02 06:27:04;;;;;;;17.27;13.70;;;7.80;99.90;;;;;;4900361;29;20402;-80
2021/05/02 06:29:30;;;;;;;15.50;13.57;;;7.70;99.90;;;;;;4946339;29;20401;-79
2021/05/02 06:31:55;;;;;;;16.88;12.60;;;7.70;99.90;;;;;;4930290;29;20490;-80
2021/05/02 06:34:21;;;;;;;15.07;12.77;;;7.70;99.90;;;;;;4927962;29;20407;-80
2021/05/02 06:36:47;;;;;;;14.55;11.85;;;7.80;99.90;;;;;;4890246;29;20439;-79
2021/05/02 06:39:13;;;;;;;12.43;10.93;;;7.80;99.90;;;;;;4899061;29;20415;-79
2021/05/02 06:41:39;;;;;;;12.23;10.93;;;7.80;99.90;;;;;;4893723;29;20890;-79
2021/05/02 06:44:06;;;;;;;14.30;11.68;;;7.80;99.90;;;;;;4923641;29;20805;-79
2021/05/02 06:46:32;;;;;;;14.60;11.20;;;7.80;99.90;;;;;;4925035;29;20440;-78
2021/05/02 06:48:59;;;;;;;13.00;10.82;;;7.80;99.90;;;;;;4924965;29;20446;-79
2021/05/02 06:51:25;;;;;;;11.95;10.73;;;7.70;99.90;;;;;;4909329;29;20502;-79
2021/05/02 06:53:50;;;;;;;12.43;10.13;;;7.70;99.90;;;;;;4896770;29;20460;-79
2021/05/02 06:56:16;;;;;;;10.95;9.55;;;7.80;99.90;;;;;;4906387;29;20967;-79
2021/05/02 06:58:42;;;;;;;12.20;10.07;;;7.70;99.90;;;;;;4909474;29;20423;-79
2021/05/02 07:01:08;;;;;;;11.48;10.07;;;7.80;99.90;;;;;;4909292;29;20407;-79
2021/05/02 07:03:34;;;;;;;14.07;10.73;;;7.80;99.90;;;;;;4894185;29;20891;-80
2021/05/02 07:06:00;;;;;;;11.13;8.93;;;7.90;99.90;;;;;;4903329;29;20415;-80
2021/05/02 07:08:26;;;;;;;11.90;10.02;;;7.80;99.90;;;;;;4917789;29;20907;-80
2021/05/02 07:10:52;;;;;;;11.15;9.60;;;7.80;99.90;;;;;;4929133;29;20406;-79
2021/05/02 07:13:17;;;;;;;9.90;8.90;;;7.80;99.90;;;;;;4896237;29;20876;-80
2021/05/02 07:15:43;;;;;;;12.60;9.30;;;7.80;99.90;;;;;;4890406;29;20781;-79
2021/05/02 07:18:09;;;;;;;11.07;9.15;;;8.00;99.90;;;;;;4894626;29;20428;-79
2021/05/02 07:20:35;;;;;;;11.50;9.60;;;7.90;99.90;;;;;;4881327;29;20500;-79
2021/05/02 07:23:00;;;;;;;8.80;7.80;;;7.90;99.90;;;;;;4896538;29;20414;-78
2021/05/02 07:25:27;;;;;;;9.25;8.32;;;7.90;99.90;;;;;;4883733;29;20413;-79
2021/05/02 07:27:52;;;;;;;9.35;8.35;;;8.00;99.90;;;;;;4926922;29;20465;-78
2021/05/02 07:30:19;;;;;;;8.60;7.80;;;8.00;99.90;;;;;;4914592;29;20414;-78
2021/05/02 07:32:45;;;;;;;9.18;8.27;;;8.00;99.90;;;;;;4928714;29;20485;-79
2021/05/02 07:35:10;;;;;;;9.10;8.18;;;8.00;99.90;;;;;;4913239;29;20434;-79
2021/05/02 07:37:36;;;;;;;12.15;8.98;;;8.00;99.90;;;;;;4906067;29;20422;-79
2021/05/02 07:40:03;;;;;;;10.17;8.37;;;8.00;99.90;;;;;;4897025;29;20407;-79
2021/05/02 07:42:28;;;;;;;9.23;8.05;;;7.90;99.90;;;;;;4922505;29;20413;-78
2021/05/02 07:44:54;;;;;;;8.67;7.47;;;7.90;99.90;;;;;;4921441;29;20780;-78
2021/05/02 07:47:20;;;;;;;9.48;8.43;;;7.90;99.90;;;;;;4891293;29;20465;-79
2021/05/02 07:49:46;;;;;;;10.90;8.23;;;8.00;99.90;;;;;;4896298;29;20836;-79
2021/05/02 07:52:11;;;;;;;8.82;7.93;;;8.00;99.90;;;;;;4920156;29;20433;-79
2021/05/02 07:54:37;;;;;;;9.73;8.07;;;8.10;99.90;;;;;;4905308;29;20488;-78
2021/05/02 07:57:03;;;;;;;8.32;7.35;;;8.00;99.90;;;;;;4911171;29;20460;-79
2021/05/02 07:59:29;;;;;;;9.88;7.82;;;8.00;99.90;;;;;;4920419;29;20424;-79
2021/05/02 08:01:55;;;;;;;8.98;8.10;;;7.90;99.90;;;;;;4905806;29;20414;-79
2021/05/02 08:04:20;;;;;;;9.33;8.07;;;8.00;99.90;;;;;;4903004;29;20429;-78
2021/05/02 08:06:49;;;;;;;9.57;8.07;;;8.00;99.90;;;;;;4881678;29;20448;-80
2021/05/02 08:09:18;;;;;;;9.20;7.97;;;8.00;99.90;;;;;;4907839;29;20394;-80
2021/05/02 08:11:44;;;;;;;7.97;7.18;;;8.10;99.90;;;;;;4884698;29;20404;-80
2021/05/02 08:14:10;;;;;;;7.90;7.10;;;8.20;99.90;;;;;;4904371;29;20408;-78
2021/05/02 08:16:36;;;;;;;7.63;6.85;;;8.30;99.90;;;;;;4881155;29;20469;-79
2021/05/02 08:19:02;;;;;;;9.47;6.77;;;8.40;99.90;;;;;;4903150;29;20423;-79
2021/05/02 08:21:28;;;;;;;8.83;7.40;;;8.60;99.90;;;;;;4891995;29;21006;-79
2021/05/02 08:23:54;;;;;;;7.32;6.65;;;8.70;99.90;;;;;;4901024;29;20436;-79
2021/05/02 08:26:20;;;;;;;7.50;6.53;;;8.60;99.90;;;;;;4930373;29;20928;-78
2021/05/02 08:28:46;;;;;;;8.55;6.93;;;8.50;99.90;;;;;;4915666;29;20444;-78
2021/05/02 08:31:12;;;;;;;6.60;5.90;;;8.60;99.90;;;;;;4893094;29;20999;-78
2021/05/02 08:33:38;;;;;;;8.93;6.97;;;8.60;99.90;;;;;;4896570;29;20455;-78
2021/05/02 08:36:04;;;;;;;7.82;6.55;;;8.60;99.90;;;;;;4907620;29;20498;-79
2021/05/02 08:38:30;;;;;;;6.65;6.05;;;8.60;99.90;;;;;;4915378;29;20492;-78
2021/05/02 08:41:00;;;;;;;6.88;6.10;;;8.70;99.90;;;;;;4895026;29;20404;-78
2021/05/02 08:43:27;;;;;;;9.67;8.00;;;8.80;99.90;;;;;;4928614;29;20933;-79
2021/05/02 08:45:52;;;;;;;8.95;7.03;;;8.90;99.90;;;;;;4927047;29;20842;-79
2021/05/02 08:48:22;;;;;;;6.03;5.53;;;8.90;99.90;;;;;;4901578;29;20481;-78
2021/05/02 08:50:49;;;;;;;6.82;6.07;;;8.90;99.90;;;;;;4926214;29;20446;-79
2021/05/02 08:53:16;;;;;;;7.00;5.90;;;8.80;99.90;;;;;;4918135;29;20412;-79
2021/05/02 08:55:42;;;;;;;6.50;5.90;;;8.90;99.90;;;;;;4909163;29;20433;-79
2021/05/02 08:58:18;;;;;;;6.22;5.35;;;8.80;99.90;;;;;;4908503;29;20432;-80
2021/05/02 09:00:44;;;;;;;5.70;5.20;;;9.00;99.90;;;;;;4914927;29;20422;-79
2021/05/02 09:03:10;;;;;;;7.43;6.40;;;9.10;99.90;;;;;;4917539;29;20413;-79
2021/05/02 09:05:43;;;;;;;6.78;6.18;;;9.20;99.90;;;;;;4907350;29;20414;-78
2021/05/02 09:08:10;;;;;;;6.10;5.50;;;9.00;99.90;;;;;;4924101;29;21659;-80
2021/05/02 09:10:36;;;;;;;6.57;5.57;;;8.70;99.90;;;;;;4914914;29;20417;-79
2021/05/02 09:13:02;;;;;;;6.53;5.67;;;8.80;99.90;;;;;;4923343;29;20768;-78
2021/05/02 09:15:28;;;;;;;6.38;5.35;;;8.70;99.90;;;;;;4910921;29;20431;-80
2021/05/02 09:18:18;;;;;;;6.10;5.40;;;8.80;99.90;;;;;;4903142;29;20415;-79
2021/05/02 09:20:48;;;;;;;6.05;4.82;;;8.90;99.90;;;;;;4904854;29;20443;-78
2021/05/02 09:23:14;;;;;;;4.78;4.35;;;9.00;99.90;;;;;;4899118;29;20505;-77
2021/05/02 09:25:53;;;;;;;6.07;5.20;;;9.00;99.90;;;;;;4899411;29;20406;-78
2021/05/02 09:28:39;;;;;;;4.72;4.32;;;8.90;99.90;;;;;;4882815;29;20417;-77
2021/05/02 09:31:06;;;;;;;4.82;4.32;;;9.10;99.90;;;;;;4907756;29;20409;-77
2021/05/02 09:33:32;;;;;;;5.68;5.07;;;9.10;99.90;;;;;;4888913;29;21129;-77
2021/05/02 09:35:57;;;;;;;5.97;5.47;;;8.80;99.90;;;;;;4915335;29;20414;-78
2021/05/02 09:38:23;;;;;;;6.27;5.37;;;8.70;99.90;;;;;;4909230;29;20410;-78
2021/05/02 09:40:59;;;;;;;5.40;4.90;;;8.80;99.90;;;;;;4921462;29;20407;-80
2021/05/02 09:43:45;;;;;;;5.43;4.93;;;9.10;99.90;;;;;;4931011;29;20418;-80
2021/05/02 09:48:54;;;;;;;5.47;4.95;;;9.20;99.90;;;;;;4920730;29;20422;-78
2021/05/02 09:51:23;;;;;;;5.68;5.07;;;9.30;99.90;;;;;;4916637;29;20414;-79
2021/05/02 09:54:08;;;;;;;5.50;4.90;;;9.10;99.90;;;;;;4899442;29;20406;-79
2021/05/02 09:56:39;;;;;;;5.45;4.95;;;9.10;99.90;;;;;;4907685;29;20403;-81
2021/05/02 09:59:05;;;;;;;6.47;5.55;;;9.10;99.90;;;;;;4918026;29;20422;-81
2021/05/02 10:01:31;;;;;;;5.78;5.28;;;9.10;99.90;;;;;;4914864;29;20486;-80
2021/05/02 10:04:00;;;;;;;6.07;5.47;;;9.00;99.90;;;;;;4913294;29;20484;-80
2021/05/02 10:06:33;;;;;;;6.82;4.95;;;8.90;99.90;;;;;;4901527;29;20410;-79
2021/05/02 10:09:06;;;;;;;5.38;4.88;;;8.80;99.90;;;;;;4909573;29;20454;-80
2021/05/02 10:11:34;;;;;;;4.70;4.30;;;8.80;99.90;;;;;;4920443;29;20422;-81
2021/05/02 10:14:02;;;;;;;4.68;4.28;;;8.70;99.90;;;;;;4931982;29;21044;-79
2021/05/02 10:16:28;;;;;;;4.68;3.97;;;8.80;99.90;;;;;;4898383;29;20431;-79
2021/05/02 10:18:55;;;;;;;5.95;5.22;;;9.00;99.90;;;;;;4898616;29;20433;-79
2021/05/02 10:21:21;;;;;;;5.32;4.50;;;9.00;99.90;;;;;;4907180;29;20493;-79
2021/05/02 10:23:47;;;;;;;4.78;4.35;;;9.00;99.90;;;;;;4915168;29;20414;-79
2021/05/02 10:26:15;;;;;;;4.40;4.00;;;9.00;99.90;;;;;;4913443;29;20506;-79
2021/05/02 10:28:41;;;;;;;5.15;4.55;;;9.10;99.90;;;;;;4923641;29;20430;-79
2021/05/02 10:31:08;;;;;;;4.47;4.07;;;9.30;99.90;;;;;;4906504;29;20413;-79
2021/05/02 10:33:38;;;;;;;4.53;4.13;;;9.30;99.90;;;;;;4896773;29;20409;-79
2021/05/02 10:36:24;;;;;;;5.63;5.03;;;9.30;99.90;;;;;;4911845;29;20412;-79
2021/05/02 10:38:56;;;;;;;4.38;3.97;;;9.30;99.90;;;;;;4889641;29;20455;-80
2021/05/02 10:41:26;;;;;;;4.30;3.97;;;9.40;99.90;;;;;;4909981;29;20425;-78
2021/05/02 10:43:53;;;;;;;4.50;4.00;;;9.40;99.90;;;;;;4897786;29;20438;-78
2021/05/02 10:46:44;;;;;;;4.45;4.05;;;9.30;99.90;;;;;;4921962;29;20508;-78
2021/05/02 10:49:11;;;;;;;4.65;4.10;;;9.30;99.90;;;;;;4906806;29;20968;-78
2021/05/02 10:51:37;;;;;;;4.43;3.88;;;9.10;99.90;;;;;;4924127;29;20788;-78
2021/05/02 10:54:12;;;;;;;4.40;4.00;;;9.10;99.90;;;;;;4918775;29;20504;-79
2021/05/02 10:56:45;;;;;;;5.50;3.75;;;9.20;99.90;;;;;;4923477;29;20518;-78
2021/05/02 10:59:11;;;;;;;4.43;4.03;;;9.30;99.90;;;;;;4900140;29;20411;-78
2021/05/02 11:01:36;;;;;;;4.53;4.13;;;9.40;99.90;;;;;;4926536;29;21026;-79
2021/05/02 11:04:02;;;;;;;3.92;3.60;;;9.50;99.90;;;;;;4907942;29;20411;-77
2021/05/02 11:06:37;;;;;;;4.00;3.70;;;9.60;99.90;;;;;;4893681;29;20416;-79
2021/05/02 11:09:12;;;;;;;3.95;3.55;;;9.40;99.90;;;;;;4916932;29;20888;-80
2021/05/02 11:11:58;;;;;;;3.88;3.47;;;9.40;99.90;;;;;;4913850;29;20402;-81
2021/05/02 11:14:28;;;;;;;4.00;3.60;;;9.50;99.90;;;;;;4918897;29;20386;-80
2021/05/02 11:16:53;;;;;;;3.90;3.47;;;9.60;99.90;;;;;;4929214;29;20853;-80
2021/05/02 11:19:20;;;;;;;4.20;3.80;;;9.80;99.90;;;;;;4942898;29;20812;-80
2021/05/02 11:21:49;;;;;;;3.88;3.47;;;9.90;99.90;;;;;;4937732;29;20777;-80
2021/05/02 11:28:43;;;;;;;3.97;3.58;;;10.10;99.90;;;;;;4931606;29;20427;-80
2021/05/02 11:31:08;;;;;;;3.45;3.15;;;10.10;99.90;;;;;;4890632;29;20885;-80
2021/05/02 11:33:40;;;;;;;3.97;3.58;;;10.20;99.90;;;;;;4906227;29;20502;-81
2021/05/02 11:36:58;;;;;;;3.65;3.35;;;10.20;99.90;;;;;;4874333;29;20412;-80
2021/05/02 11:43:24;;;;;;;3.70;3.40;;;10.40;99.90;;;;;;4958871;29;20829;-80
2021/05/02 11:45:58;;;;;;;3.00;2.80;;;10.80;99.90;;;;;;4929750;29;20416;-80
2021/05/02 11:48:31;;;;;;;3.47;3.05;;;10.70;99.90;;;;;;4928244;29;20428;-80
2021/05/02 11:51:02;;;;;;;3.13;2.85;;;10.80;99.90;;;;;;4913468;29;20406;-80
2021/05/02 11:53:51;;;;;;;3.20;2.90;;;10.80;99.90;;;;;;4889061;29;20394;-81
2021/05/02 11:56:24;;;;;;;3.65;3.35;;;10.90;99.90;;;;;;4904708;29;20407;-81
2021/05/02 11:58:54;;;;;;;3.47;3.17;;;10.80;99.90;;;;;;4910573;29;20927;-79
2021/05/02 12:01:30;;;;;;;3.63;3.33;;;10.40;99.90;;;;;;4918854;29;21039;-79
2021/05/02 12:04:05;;;;;;;3.75;3.45;;;10.30;99.90;;;;;;4915131;29;20402;-80
2021/05/02 12:06:33;;;;;;;3.35;3.05;;;10.30;99.90;;;;;;4920716;29;20401;-79
2021/05/02 12:08:59;;;;;;;3.97;3.58;;;10.40;99.90;;;;;;4935867;29;20409;-80
2021/05/02 12:11:26;;;;;;;4.05;3.72;;;10.30;99.90;;;;;;4905009;29;20414;-80
2021/05/02 12:13:54;;;;;;;3.80;3.50;;;10.20;99.90;;;;;;4902855;29;20402;-80
2021/05/02 12:19:55;;;;;;;4.03;3.50;;;10.20;99.90;;;;;;4943402;29;20477;-79
2021/05/02 12:22:21;;;;;;;3.40;3.20;;;10.30;99.90;;;;;;4901456;29;20411;-80
2021/05/02 12:24:47;;;;;;;3.65;3.35;;;10.20;99.90;;;;;;4902219;29;20416;-81
2021/05/02 12:27:14;;;;;;;3.92;3.53;;;10.40;99.90;;;;;;4919708;29;20397;-79
2021/05/02 12:29:43;;;;;;;3.83;3.47;;;10.40;99.90;;;;;;4902702;29;20461;-79
2021/05/02 12:32:16;;;;;;;3.58;3.25;;;10.50;99.90;;;;;;4914024;29;20414;-80
2021/05/02 12:34:46;;;;;;;3.70;3.30;;;10.50;99.90;;;;;;4909160;29;20416;-79
2021/05/02 12:37:17;;;;;;;3.70;3.40;;;10.60;99.90;;;;;;4901855;29;20416;-80
2021/05/02 12:39:53;;;;;;;3.33;3.03;;;10.70;99.90;;;;;;4902798;29;20423;-80
2021/05/02 12:42:37;;;;;;;3.72;3.13;;;10.70;99.90;;;;;;4916445;29;20407;-81
2021/05/02 12:45:05;;;;;;;3.58;3.28;;;10.90;99.90;;;;;;4886053;29;20954;-80
2021/05/02 12:47:38;;;;;;;3.70;3.40;;;11.00;99.90;;;;;;4897299;29;20429;-81
2021/05/02 12:50:07;;;;;;;3.35;3.05;;;11.00;99.90;;;;;;4932078;29;20404;-80
2021/05/02 12:52:37;;;;;;;3.13;2.92;;;11.00;99.90;;;;;;4920888;29;20949;-79
2021/05/02 12:55:20;;;;;;;3.60;3.30;;;11.00;99.90;;;;;;4924035;29;20423;-81
2021/05/02 13:00:58;;;;;;;4.00;3.60;;;11.00;99.90;;;;;;4911576;29;20418;-79
2021/05/02 13:03:33;;;;;;;4.15;3.75;;;10.80;99.90;;;;;;4909298;29;20412;-80
2021/05/02 13:06:16;;;;;;;3.83;3.53;;;10.80;99.90;;;;;;4886406;29;20483;-81
2021/05/02 13:09:02;;;;;;;3.80;3.40;;;10.60;99.90;;;;;;4916225;29;20436;-80
2021/05/02 13:11:35;;;;;;;3.70;3.40;;;10.40;99.90;;;;;;4897521;29;20468;-80